createdAt,value
2023-05-18T00:04:17.371Z,8.70
2023-05-18T00:09:16.621Z,8.68
2023-05-18T00:14:15.606Z,8.35
2023-05-18T00:19:16.357Z,9.80
2023-05-18T00:24:15.945Z,8.90
2023-05-18T00:29:14.701Z,9.05
2023-05-18T00:34:16.625Z,9.68
2023-05-18T00:39:15.334Z,7.90
2023-05-18T00:44:14.147Z,8.85
2023-05-18T00:49:13.130Z,8.77
2023-05-18T00:54:13.479Z,9.20
2023-05-18T00:59:12.412Z,8.27
2023-05-18T01:04:14.360Z,7.43
2023-05-18T01:09:16.403Z,8.07
2023-05-18T01:14:19.303Z,7.90
2023-05-18T01:19:40.197Z,7.47
2023-05-18T01:24:44.614Z,8.02
2023-05-18T01:29:47.360Z,7.97
2023-05-18T01:34:46.191Z,7.95
2023-05-18T01:39:45.024Z,7.55
2023-05-18T01:44:49.828Z,7.75
2023-05-18T01:49:55.072Z,7.78
2023-05-18T01:54:57.588Z,8.23
2023-05-18T02:00:00.228Z,6.68
2023-05-18T02:04:59.285Z,7.22
2023-05-18T02:09:58.158Z,6.55
2023-05-18T02:14:58.638Z,6.22
2023-05-18T02:19:57.563Z,7.38
2023-05-18T02:24:57.011Z,7.13
2023-05-18T02:29:56.925Z,8.32
2023-05-18T02:34:57.276Z,8.48
2023-05-18T02:39:56.082Z,6.93
2023-05-18T02:44:56.328Z,7.35
2023-05-18T02:49:55.402Z,6.25
2023-05-18T02:54:56.409Z,5.38
2023-05-18T03:00:13.336Z,5.30
2023-05-18T03:05:12.259Z,4.82
2023-05-18T03:10:12.864Z,5.03
2023-05-18T03:15:13.967Z,5.68
2023-05-18T03:20:15.701Z,4.35
2023-05-18T03:25:16.613Z,5.35
2023-05-18T03:30:18.034Z,4.95
2023-05-18T03:35:17.516Z,4.18
2023-05-18T03:40:20.622Z,4.45
2023-05-18T03:45:21.294Z,4.38
2023-05-18T03:50:20.198Z,4.25
2023-05-18T03:55:21.647Z,5.15
2023-05-18T04:00:20.963Z,4.00
2023-05-18T04:05:21.100Z,5.05
2023-05-18T04:10:22.153Z,24.45
2023-05-18T04:15:20.957Z,14.75
2023-05-18T04:20:21.357Z,7.25
2023-05-18T04:25:21.541Z,8.50
2023-05-18T04:30:22.623Z,9.65
2023-05-18T04:35:22.502Z,11.10
2023-05-18T04:40:23.437Z,8.02
2023-05-18T04:45:22.994Z,6.88
2023-05-18T04:50:24.753Z,8.45
2023-05-18T04:55:28.419Z,7.72
2023-05-18T05:00:32.021Z,8.25
2023-05-18T05:05:31.293Z,8.75
2023-05-18T05:10:31.684Z,6.20
2023-05-18T05:15:32.143Z,5.82
2023-05-18T05:20:31.019Z,6.13
2023-05-18T05:25:31.673Z,5.57
2023-05-18T05:30:30.988Z,6.97
2023-05-18T05:35:31.884Z,6.20
2023-05-18T05:45:32.937Z,6.22
2023-05-18T05:50:35.762Z,6.10
2023-05-18T05:55:41.379Z,6.53
2023-05-18T06:00:47.217Z,6.25
2023-05-18T06:10:51.211Z,6.65
2023-05-18T06:15:50.683Z,7.95
2023-05-18T06:20:49.582Z,6.53
2023-05-18T06:25:50.919Z,8.50
2023-05-18T06:31:06.846Z,8.05
2023-05-18T06:36:28.722Z,7.30
2023-05-18T06:41:30.915Z,6.88
2023-05-18T06:51:39.445Z,7.38
2023-05-18T06:56:39.986Z,8.18
2023-05-18T07:01:38.904Z,9.13
2023-05-18T07:06:38.443Z,7.78
2023-05-18T07:11:37.187Z,6.97
2023-05-18T07:16:37.593Z,6.55
2023-05-18T07:21:36.395Z,2.30
2023-05-18T07:26:35.144Z,5.30
2023-05-18T07:31:45.029Z,5.78
2023-05-18T07:36:52.477Z,5.68
2023-05-18T07:41:51.515Z,5.15
2023-05-18T07:46:50.405Z,4.85
2023-05-18T07:51:53.551Z,5.03
2023-05-18T07:56:52.837Z,4.60
2023-05-18T08:01:51.708Z,4.80
2023-05-18T08:06:56.393Z,4.93
2023-05-18T08:11:55.200Z,5.68
2023-05-18T08:16:54.066Z,4.97
2023-05-18T08:21:54.348Z,4.88
2023-05-18T08:26:53.273Z,5.47
2023-05-18T08:31:52.892Z,4.47
2023-05-18T08:36:53.165Z,5.20
2023-05-18T08:42:02.495Z,5.07
2023-05-18T08:47:02.059Z,6.47
2023-05-18T08:52:05.672Z,4.45
2023-05-18T08:57:12.074Z,6.00
2023-05-18T09:02:11.522Z,5.85
2023-05-18T09:07:11.776Z,5.07
2023-05-18T09:12:12.963Z,4.30
2023-05-18T09:17:12.027Z,3.65
2023-05-18T09:22:10.995Z,3.65
2023-05-18T09:27:11.191Z,4.30
2023-05-18T09:32:12.255Z,3.97
2023-05-18T09:37:11.325Z,3.70
2023-05-18T09:42:12.401Z,4.13
2023-05-18T09:47:11.793Z,2.80
2023-05-18T09:52:11.017Z,3.20
2023-05-18T09:57:14.364Z,2.42
2023-05-18T10:02:15.587Z,3.92
2023-05-18T10:07:17.387Z,2.80
2023-05-18T10:12:19.873Z,3.03
2023-05-18T10:17:18.808Z,2.90
2023-05-18T10:22:19.717Z,2.03
2023-05-18T10:27:25.474Z,2.50
2023-05-18T10:32:25.513Z,2.08
2023-05-18T10:37:25.324Z,1.75
2023-05-18T10:42:31.161Z,1.73
2023-05-18T10:47:31.040Z,1.58
2023-05-18T10:52:32.042Z,1.60
2023-05-18T10:57:40.203Z,1.95
2023-05-18T11:02:43.108Z,1.52
2023-05-18T11:07:46.431Z,1.45
2023-05-18T11:12:46.720Z,1.50
2023-05-18T11:17:45.439Z,1.67
2023-05-18T11:22:46.887Z,1.67
2023-05-18T11:32:52.697Z,1.30
2023-05-18T11:37:51.857Z,1.73
2023-05-18T11:42:59.538Z,2.30
2023-05-18T11:48:03.051Z,2.13
2023-05-18T11:53:02.467Z,1.05
2023-05-18T11:58:02.630Z,1.50
2023-05-18T12:03:02.928Z,1.75
2023-05-18T12:08:02.046Z,1.55
2023-05-18T12:13:02.925Z,1.27
2023-05-18T12:18:01.787Z,24.55
2023-05-18T12:23:01.260Z,15.63
2023-05-18T12:28:05.284Z,1.70
2023-05-18T12:33:05.073Z,1.30
2023-05-18T12:38:05.044Z,2.22
2023-05-18T12:43:05.741Z,1.73
2023-05-18T12:48:08.731Z,2.88
2023-05-18T12:53:08.058Z,2.13
2023-05-18T12:58:17.134Z,2.25
2023-05-18T13:03:22.017Z,2.13
2023-05-18T13:08:22.517Z,1.73
2023-05-18T13:13:23.405Z,1.75
2023-05-18T13:18:23.381Z,2.47
2023-05-18T13:23:27.195Z,2.95
2023-05-18T13:28:29.700Z,1.80
2023-05-18T13:33:35.716Z,1.95
2023-05-18T13:38:37.341Z,1.73
2023-05-18T13:43:37.525Z,2.40
2023-05-18T13:48:36.492Z,2.00
2023-05-18T13:53:35.248Z,2.22
2023-05-18T13:58:33.990Z,1.80
2023-05-18T14:03:34.312Z,2.15
2023-05-18T14:08:40.553Z,1.90
2023-05-18T14:13:39.946Z,2.15
2023-05-18T14:18:40.527Z,1.90
2023-05-18T14:23:39.610Z,2.10
2023-05-18T14:28:38.781Z,1.50
2023-05-18T14:33:37.906Z,1.92
2023-05-18T14:38:40.941Z,2.10
2023-05-18T14:43:39.704Z,1.70
2023-05-18T14:48:41.306Z,1.75
2023-05-18T14:53:42.179Z,1.55
2023-05-18T14:58:41.523Z,2.08
2023-05-18T15:03:40.421Z,1.67
2023-05-18T15:08:39.462Z,2.20
2023-05-18T15:13:40.739Z,1.73
2023-05-18T15:18:39.802Z,2.30
2023-05-18T15:23:39.111Z,1.75
2023-05-18T15:28:41.683Z,2.63
2023-05-18T15:33:43.517Z,1.80
2023-05-18T15:38:45.432Z,1.95
2023-05-18T15:43:46.782Z,2.08
2023-05-18T15:48:46.053Z,2.08
2023-05-18T15:53:44.917Z,1.55
2023-05-18T15:58:45.570Z,2.03
2023-05-18T16:03:44.628Z,1.48
2023-05-18T16:08:45.931Z,1.85
2023-05-18T16:13:47.823Z,3.67
2023-05-18T16:18:46.879Z,2.38
2023-05-18T16:23:46.683Z,1.77
2023-05-18T16:28:46.829Z,2.13
2023-05-18T16:33:45.734Z,2.28
2023-05-18T16:38:53.086Z,2.70
2023-05-18T16:43:54.554Z,1.73
2023-05-18T16:48:53.485Z,2.53
2023-05-18T16:53:52.805Z,2.17
2023-05-18T16:58:52.524Z,1.70
2023-05-18T17:03:52.908Z,1.50
2023-05-18T17:08:57.645Z,1.65
2023-05-18T17:14:00.964Z,2.17
2023-05-18T17:19:01.241Z,1.90
2023-05-18T17:24:00.156Z,1.33
2023-05-18T17:28:58.970Z,1.52
2023-05-18T17:33:57.825Z,2.10
2023-05-18T17:38:57.988Z,1.83
2023-05-18T17:43:56.744Z,1.80
2023-05-18T17:48:55.936Z,1.60
2023-05-18T17:53:56.513Z,1.50
2023-05-18T17:58:58.697Z,1.58
2023-05-18T18:08:59.915Z,2.28
2023-05-18T18:14:02.555Z,2.20
2023-05-18T18:19:03.471Z,2.53
2023-05-18T18:24:03.110Z,2.88
2023-05-18T18:29:03.876Z,2.30
2023-05-18T18:34:04.091Z,2.75
2023-05-18T18:39:08.501Z,2.75
2023-05-18T18:44:12.928Z,2.47
2023-05-18T18:49:13.459Z,3.25
2023-05-18T18:54:15.389Z,3.00
2023-05-18T18:59:16.025Z,2.78
2023-05-18T19:04:14.931Z,2.60
2023-05-18T19:09:13.988Z,3.08
2023-05-18T19:14:12.809Z,3.00
2023-05-18T19:19:14.722Z,3.40
2023-05-18T19:24:15.448Z,3.60
2023-05-18T19:29:15.175Z,4.63
2023-05-18T19:34:15.509Z,6.65
2023-05-18T19:39:16.372Z,4.43
2023-05-18T19:44:15.894Z,4.18
2023-05-18T19:49:16.239Z,16.10
2023-05-18T19:54:15.196Z,7.78
2023-05-18T19:59:14.089Z,5.47
2023-05-18T20:04:13.111Z,5.15
2023-05-18T20:09:13.324Z,4.70
2023-05-18T20:14:12.078Z,6.63
2023-05-18T20:19:12.949Z,3.35
2023-05-18T20:24:16.062Z,4.07
2023-05-18T20:29:14.815Z,15.60
2023-05-18T20:34:28.124Z,4.40
2023-05-18T20:39:28.859Z,3.67
2023-05-18T20:44:29.534Z,3.47
2023-05-18T20:49:37.943Z,3.83
2023-05-18T20:54:38.428Z,4.20
2023-05-18T20:59:37.273Z,3.97
2023-05-18T21:04:36.250Z,3.80
2023-05-18T21:09:34.994Z,3.83
2023-05-18T21:14:40.415Z,4.57
2023-05-18T21:19:39.540Z,4.60
2023-05-18T21:24:38.499Z,5.07
2023-05-18T21:29:38.797Z,4.57
2023-05-18T21:34:37.547Z,5.07
2023-05-18T21:39:36.422Z,4.15
2023-05-18T21:44:35.236Z,5.05
2023-05-18T21:49:35.502Z,5.18
2023-05-18T21:54:35.620Z,4.95
2023-05-18T21:59:34.446Z,5.60
2023-05-18T22:04:33.363Z,4.88
2023-05-18T22:09:33.484Z,4.72
2023-05-18T22:14:32.189Z,5.40
2023-05-18T22:19:30.909Z,5.35
2023-05-18T22:24:29.649Z,5.40
2023-05-18T22:29:29.868Z,5.50
2023-05-18T22:34:28.637Z,5.45
2023-05-18T22:39:27.460Z,5.32
2023-05-18T22:44:26.225Z,5.40
2023-05-18T22:49:26.689Z,5.30
2023-05-18T22:54:25.478Z,6.18
2023-05-18T22:59:24.296Z,5.40
2023-05-18T23:04:23.113Z,6.22
2023-05-18T23:09:23.251Z,5.60
2023-05-18T23:14:22.250Z,5.18
2023-05-18T23:19:21.120Z,7.03
2023-05-18T23:24:19.965Z,6.63
2023-05-18T23:29:20.098Z,5.63
2023-05-18T23:34:19.370Z,6.55
2023-05-18T23:39:18.115Z,5.90
2023-05-18T23:44:17.438Z,5.93
2023-05-18T23:49:18.256Z,6.50
2023-05-18T23:54:17.618Z,6.63
2023-05-18T23:59:16.582Z,5.57
